sensor_id;sensor_type;location;lat;lon;timestamp;P1;durP1;ratioP1;P2;durP2;ratioP2
24411;SDS011;12544;46.760;15.942;2022-12-26T00:00:12;14.90;;;12.35;;
24411;SDS011;12544;46.760;15.942;2022-12-26T00:02:40;12.15;;;10.88;;
24411;SDS011;12544;46.760;15.942;2022-12-26T00:05:05;10.38;;;9.27;;
24411;SDS011;12544;46.760;15.942;2022-12-26T00:07:31;11.70;;;10.23;;
24411;SDS011;12544;46.760;15.942;2022-12-26T00:09:57;25.17;;;21.83;;
24411;SDS011;12544;46.760;15.942;2022-12-26T00:12:23;30.83;;;25.10;;
24411;SDS011;12544;46.760;15.942;2022-12-26T00:14:48;28.35;;;24.75;;
24411;SDS011;12544;46.760;15.942;2022-12-26T00:17:14;28.95;;;23.25;;
24411;SDS011;12544;46.760;15.942;2022-12-26T00:19:40;30.15;;;25.00;;
24411;SDS011;12544;46.760;15.942;2022-12-26T00:25:28;26.23;;;19.52;;
24411;SDS011;12544;46.760;15.942;2022-12-26T00:27:54;17.10;;;15.05;;
24411;SDS011;12544;46.760;15.942;2022-12-26T00:30:19;14.50;;;13.00;;
24411;SDS011;12544;46.760;15.942;2022-12-26T00:32:45;14.15;;;12.60;;
24411;SDS011;12544;46.760;15.942;2022-12-26T00:35:10;19.85;;;17.50;;
24411;SDS011;12544;46.760;15.942;2022-12-26T00:37:36;25.63;;;22.38;;
24411;SDS011;12544;46.760;15.942;2022-12-26T00:40:02;20.13;;;17.90;;
24411;SDS011;12544;46.760;15.942;2022-12-26T00:42:28;17.00;;;15.05;;
24411;SDS011;12544;46.760;15.942;2022-12-26T00:44:54;15.82;;;13.70;;
24411;SDS011;12544;46.760;15.942;2022-12-26T00:47:19;15.27;;;13.27;;
24411;SDS011;12544;46.760;15.942;2022-12-26T00:49:45;15.60;;;14.00;;
24411;SDS011;12544;46.760;15.942;2022-12-26T00:52:10;18.27;;;14.75;;
24411;SDS011;12544;46.760;15.942;2022-12-26T00:54:36;17.23;;;15.38;;
24411;SDS011;12544;46.760;15.942;2022-12-26T00:57:02;15.90;;;13.70;;
24411;SDS011;12544;46.760;15.942;2022-12-26T00:59:30;16.17;;;14.20;;
24411;SDS011;12544;46.760;15.942;2022-12-26T01:01:56;17.45;;;13.88;;
24411;SDS011;12544;46.760;15.942;2022-12-26T01:04:21;18.40;;;14.88;;
24411;SDS011;12544;46.760;15.942;2022-12-26T01:06:47;16.83;;;15.13;;
24411;SDS011;12544;46.760;15.942;2022-12-26T01:09:12;13.98;;;12.57;;
24411;SDS011;12544;46.760;15.942;2022-12-26T01:11:39;15.23;;;13.63;;
24411;SDS011;12544;46.760;15.942;2022-12-26T01:14:14;15.73;;;13.27;;
24411;SDS011;12544;46.760;15.942;2022-12-26T01:16:42;18.08;;;14.73;;
24411;SDS011;12544;46.760;15.942;2022-12-26T01:19:10;15.10;;;13.32;;
24411;SDS011;12544;46.760;15.942;2022-12-26T01:21:36;16.77;;;13.43;;
24411;SDS011;12544;46.760;15.942;2022-12-26T01:24:02;14.48;;;12.68;;
24411;SDS011;12544;46.760;15.942;2022-12-26T01:26:29;14.77;;;13.18;;
24411;SDS011;12544;46.760;15.942;2022-12-26T01:28:54;12.75;;;11.57;;
24411;SDS011;12544;46.760;15.942;2022-12-26T01:31:21;16.23;;;13.70;;
24411;SDS011;12544;46.760;15.942;2022-12-26T01:33:47;15.15;;;12.90;;
24411;SDS011;12544;46.760;15.942;2022-12-26T01:36:14;15.80;;;12.75;;
24411;SDS011;12544;46.760;15.942;2022-12-26T01:38:40;14.77;;;12.18;;
24411;SDS011;12544;46.760;15.942;2022-12-26T01:41:06;14.23;;;11.52;;
24411;SDS011;12544;46.760;15.942;2022-12-26T01:49:40;16.73;;;13.02;;
24411;SDS011;12544;46.760;15.942;2022-12-26T01:52:11;15.32;;;12.60;;
24411;SDS011;12544;46.760;15.942;2022-12-26T01:54:40;14.98;;;13.35;;
24411;SDS011;12544;46.760;15.942;2022-12-26T01:57:15;16.23;;;14.48;;
24411;SDS011;12544;46.760;15.942;2022-12-26T01:59:45;16.13;;;13.50;;
24411;SDS011;12544;46.760;15.942;2022-12-26T02:02:13;15.00;;;13.40;;
24411;SDS011;12544;46.760;15.942;2022-12-26T02:04:42;15.13;;;13.52;;
24411;SDS011;12544;46.760;15.942;2022-12-26T02:07:29;18.15;;;13.77;;
24411;SDS011;12544;46.760;15.942;2022-12-26T02:09:57;14.23;;;12.65;;
24411;SDS011;12544;46.760;15.942;2022-12-26T02:12:24;13.57;;;11.13;;
24411;SDS011;12544;46.760;15.942;2022-12-26T02:14:55;14.98;;;11.38;;
24411;SDS011;12544;46.760;15.942;2022-12-26T02:17:22;12.05;;;10.63;;
24411;SDS011;12544;46.760;15.942;2022-12-26T02:20:10;11.90;;;10.43;;
24411;SDS011;12544;46.760;15.942;2022-12-26T02:42:05;12.85;;;11.48;;
24411;SDS011;12544;46.760;15.942;2022-12-26T02:44:40;13.73;;;11.52;;
24411;SDS011;12544;46.760;15.942;2022-12-26T02:56:24;12.65;;;10.85;;
24411;SDS011;12544;46.760;15.942;2022-12-26T03:02:06;14.68;;;11.93;;
24411;SDS011;12544;46.760;15.942;2022-12-26T03:04:58;13.35;;;10.05;;
24411;SDS011;12544;46.760;15.942;2022-12-26T03:07:44;11.02;;;8.82;;
24411;SDS011;12544;46.760;15.942;2022-12-26T03:10:30;12.07;;;9.40;;
24411;SDS011;12544;46.760;15.942;2022-12-26T03:13:22;10.75;;;9.18;;
24411;SDS011;12544;46.760;15.942;2022-12-26T03:15:53;12.27;;;10.85;;
24411;SDS011;12544;46.760;15.942;2022-12-26T03:18:43;13.18;;;11.63;;
24411;SDS011;12544;46.760;15.942;2022-12-26T03:21:15;12.20;;;10.20;;
24411;SDS011;12544;46.760;15.942;2022-12-26T03:23:45;12.60;;;10.90;;
24411;SDS011;12544;46.760;15.942;2022-12-26T03:26:17;11.98;;;10.05;;
24411;SDS011;12544;46.760;15.942;2022-12-26T03:29:12;10.45;;;9.45;;
24411;SDS011;12544;46.760;15.942;2022-12-26T03:31:59;11.32;;;10.07;;
24411;SDS011;12544;46.760;15.942;2022-12-26T03:34:27;12.52;;;11.23;;
24411;SDS011;12544;46.760;15.942;2022-12-26T03:39:37;11.98;;;10.73;;
24411;SDS011;12544;46.760;15.942;2022-12-26T03:57:40;16.98;;;13.85;;
24411;SDS011;12544;46.760;15.942;2022-12-26T04:00:32;13.93;;;12.48;;
24411;SDS011;12544;46.760;15.942;2022-12-26T04:03:19;14.98;;;13.48;;
24411;SDS011;12544;46.760;15.942;2022-12-26T04:06:07;13.77;;;12.48;;
24411;SDS011;12544;46.760;15.942;2022-12-26T04:09:05;14.75;;;13.07;;
24411;SDS011;12544;46.760;15.942;2022-12-26T04:11:53;15.05;;;12.95;;
24411;SDS011;12544;46.760;15.942;2022-12-26T04:15:00;12.75;;;11.15;;
24411;SDS011;12544;46.760;15.942;2022-12-26T04:21:16;11.27;;;10.18;;
24411;SDS011;12544;46.760;15.942;2022-12-26T04:24:07;11.55;;;10.43;;
24411;SDS011;12544;46.760;15.942;2022-12-26T04:26:57;9.77;;;8.77;;
24411;SDS011;12544;46.760;15.942;2022-12-26T04:29:44;11.10;;;9.90;;
24411;SDS011;12544;46.760;15.942;2022-12-26T04:32:47;11.18;;;10.15;;
24411;SDS011;12544;46.760;15.942;2022-12-26T04:35:34;10.23;;;9.18;;
24411;SDS011;12544;46.760;15.942;2022-12-26T04:38:26;11.30;;;10.23;;
24411;SDS011;12544;46.760;15.942;2022-12-26T04:41:15;10.82;;;9.82;;
24411;SDS011;12544;46.760;15.942;2022-12-26T04:44:01;11.30;;;10.15;;
24411;SDS011;12544;46.760;15.942;2022-12-26T04:46:36;13.70;;;11.45;;
24411;SDS011;12544;46.760;15.942;2022-12-26T04:49:05;11.38;;;10.10;;
24411;SDS011;12544;46.760;15.942;2022-12-26T04:51:56;11.50;;;10.30;;
24411;SDS011;12544;46.760;15.942;2022-12-26T04:54:22;11.15;;;9.98;;
24411;SDS011;12544;46.760;15.942;2022-12-26T04:56:49;10.63;;;9.50;;
24411;SDS011;12544;46.760;15.942;2022-12-26T04:59:14;10.50;;;9.48;;
24411;SDS011;12544;46.760;15.942;2022-12-26T05:01:40;10.80;;;9.70;;
24411;SDS011;12544;46.760;15.942;2022-12-26T05:04:24;10.68;;;9.60;;
24411;SDS011;12544;46.760;15.942;2022-12-26T05:10:04;10.35;;;9.40;;
24411;SDS011;12544;46.760;15.942;2022-12-26T05:12:32;9.48;;;8.32;;
24411;SDS011;12544;46.760;15.942;2022-12-26T05:14:58;9.15;;;8.25;;
24411;SDS011;12544;46.760;15.942;2022-12-26T05:17:24;10.18;;;9.05;;
24411;SDS011;12544;46.760;15.942;2022-12-26T05:20:10;12.20;;;10.15;;
24411;SDS011;12544;46.760;15.942;2022-12-26T05:22:54;11.20;;;9.77;;
24411;SDS011;12544;46.760;15.942;2022-12-26T05:25:40;9.57;;;8.68;;
24411;SDS011;12544;46.760;15.942;2022-12-26T05:28:26;12.85;;;11.45;;
24411;SDS011;12544;46.760;15.942;2022-12-26T05:31:11;11.25;;;10.00;;
24411;SDS011;12544;46.760;15.942;2022-12-26T05:33:38;11.27;;;9.90;;
24411;SDS011;12544;46.760;15.942;2022-12-26T05:36:24;12.35;;;10.30;;
24411;SDS011;12544;46.760;15.942;2022-12-26T05:38:52;10.23;;;9.18;;
24411;SDS011;12544;46.760;15.942;2022-12-26T05:41:20;10.52;;;8.85;;
24411;SDS011;12544;46.760;15.942;2022-12-26T05:43:46;10.73;;;8.75;;
24411;SDS011;12544;46.760;15.942;2022-12-26T05:46:12;10.02;;;8.55;;
24411;SDS011;12544;46.760;15.942;2022-12-26T05:48:37;9.18;;;8.27;;
24411;SDS011;12544;46.760;15.942;2022-12-26T05:51:03;9.05;;;8.07;;
24411;SDS011;12544;46.760;15.942;2022-12-26T05:53:30;11.13;;;7.50;;
24411;SDS011;12544;46.760;15.942;2022-12-26T05:56:06;8.30;;;7.45;;
24411;SDS011;12544;46.760;15.942;2022-12-26T05:58:36;8.48;;;7.30;;
24411;SDS011;12544;46.760;15.942;2022-12-26T06:01:06;8.77;;;7.88;;
24411;SDS011;12544;46.760;15.942;2022-12-26T06:03:34;8.50;;;7.80;;
24411;SDS011;12544;46.760;15.942;2022-12-26T06:06:00;7.63;;;6.90;;
24411;SDS011;12544;46.760;15.942;2022-12-26T06:08:26;8.13;;;7.10;;
24411;SDS011;12544;46.760;15.942;2022-12-26T06:10:52;7.78;;;6.35;;
24411;SDS011;12544;46.760;15.942;2022-12-26T06:13:17;9.30;;;7.35;;
24411;SDS011;12544;46.760;15.942;2022-12-26T06:19:02;7.70;;;6.93;;
24411;SDS011;12544;46.760;15.942;2022-12-26T06:21:28;7.85;;;6.78;;
24411;SDS011;12544;46.760;15.942;2022-12-26T06:23:54;7.00;;;6.10;;
24411;SDS011;12544;46.760;15.942;2022-12-26T06:26:19;6.85;;;6.13;;
24411;SDS011;12544;46.760;15.942;2022-12-26T06:28:45;6.60;;;5.07;;
24411;SDS011;12544;46.760;15.942;2022-12-26T06:31:12;5.90;;;5.30;;
24411;SDS011;12544;46.760;15.942;2022-12-26T06:33:40;6.78;;;5.28;;
24411;SDS011;12544;46.760;15.942;2022-12-26T06:36:07;6.25;;;5.22;;
24411;SDS011;12544;46.760;15.942;2022-12-26T06:38:37;6.57;;;5.70;;
24411;SDS011;12544;46.760;15.942;2022-12-26T06:41:04;5.75;;;5.15;;
24411;SDS011;12544;46.760;15.942;2022-12-26T06:43:34;6.45;;;5.25;;
24411;SDS011;12544;46.760;15.942;2022-12-26T06:46:01;7.63;;;6.82;;
24411;SDS011;12544;46.760;15.942;2022-12-26T06:48:28;8.05;;;7.25;;
24411;SDS011;12544;46.760;15.942;2022-12-26T06:50:54;7.32;;;6.63;;
24411;SDS011;12544;46.760;15.942;2022-12-26T06:53:21;6.53;;;5.85;;
24411;SDS011;12544;46.760;15.942;2022-12-26T06:55:48;7.30;;;6.60;;
24411;SDS011;12544;46.760;15.942;2022-12-26T06:58:14;7.43;;;6.47;;
24411;SDS011;12544;46.760;15.942;2022-12-26T07:00:41;20.40;;;14.63;;
24411;SDS011;12544;46.760;15.942;2022-12-26T07:03:07;16.55;;;12.50;;
24411;SDS011;12544;46.760;15.942;2022-12-26T07:05:36;10.25;;;9.25;;
24411;SDS011;12544;46.760;15.942;2022-12-26T07:08:02;8.85;;;7.28;;
24411;SDS011;12544;46.760;15.942;2022-12-26T07:10:27;7.60;;;6.80;;
24411;SDS011;12544;46.760;15.942;2022-12-26T07:12:53;8.68;;;7.75;;
24411;SDS011;12544;46.760;15.942;2022-12-26T07:15:19;10.10;;;7.97;;
24411;SDS011;12544;46.760;15.942;2022-12-26T07:17:44;9.60;;;6.97;;
24411;SDS011;12544;46.760;15.942;2022-12-26T07:20:10;7.80;;;7.10;;
24411;SDS011;12544;46.760;15.942;2022-12-26T07:25:58;11.50;;;8.80;;
24411;SDS011;12544;46.760;15.942;2022-12-26T07:28:24;11.52;;;9.80;;
24411;SDS011;12544;46.760;15.942;2022-12-26T07:30:50;12.25;;;9.20;;
24411;SDS011;12544;46.760;15.942;2022-12-26T07:33:16;11.75;;;8.57;;
24411;SDS011;12544;46.760;15.942;2022-12-26T07:35:42;10.85;;;9.52;;
24411;SDS011;12544;46.760;15.942;2022-12-26T07:38:08;10.10;;;8.38;;
24411;SDS011;12544;46.760;15.942;2022-12-26T07:40:35;11.30;;;8.82;;
24411;SDS011;12544;46.760;15.942;2022-12-26T07:43:00;10.88;;;8.77;;
24411;SDS011;12544;46.760;15.942;2022-12-26T07:45:26;9.95;;;8.23;;
24411;SDS011;12544;46.760;15.942;2022-12-26T07:50:24;10.52;;;9.48;;
24411;SDS011;12544;46.760;15.942;2022-12-26T07:52:51;10.43;;;8.93;;
24411;SDS011;12544;46.760;15.942;2022-12-26T07:55:17;12.93;;;9.88;;
24411;SDS011;12544;46.760;15.942;2022-12-26T07:57:43;9.70;;;8.55;;
24411;SDS011;12544;46.760;15.942;2022-12-26T08:00:09;12.07;;;10.98;;
24411;SDS011;12544;46.760;15.942;2022-12-26T08:02:34;12.50;;;11.30;;
24411;SDS011;12544;46.760;15.942;2022-12-26T08:05:00;11.98;;;10.63;;
24411;SDS011;12544;46.760;15.942;2022-12-26T08:07:26;10.93;;;9.85;;
24411;SDS011;12544;46.760;15.942;2022-12-26T08:09:51;11.88;;;10.10;;
24411;SDS011;12544;46.760;15.942;2022-12-26T08:15:02;11.43;;;10.25;;
24411;SDS011;12544;46.760;15.942;2022-12-26T08:17:28;10.85;;;9.07;;
24411;SDS011;12544;46.760;15.942;2022-12-26T08:19:55;10.10;;;9.10;;
24411;SDS011;12544;46.760;15.942;2022-12-26T08:22:21;10.02;;;7.82;;
24411;SDS011;12544;46.760;15.942;2022-12-26T08:24:46;7.93;;;7.10;;
24411;SDS011;12544;46.760;15.942;2022-12-26T08:27:12;7.43;;;6.72;;
24411;SDS011;12544;46.760;15.942;2022-12-26T08:29:37;9.13;;;6.65;;
24411;SDS011;12544;46.760;15.942;2022-12-26T08:34:38;8.23;;;7.32;;
24411;SDS011;12544;46.760;15.942;2022-12-26T08:37:03;9.50;;;7.10;;
24411;SDS011;12544;46.760;15.942;2022-12-26T08:39:29;8.00;;;6.80;;
24411;SDS011;12544;46.760;15.942;2022-12-26T08:41:55;8.18;;;7.03;;
24411;SDS011;12544;46.760;15.942;2022-12-26T08:44:20;9.20;;;7.35;;
24411;SDS011;12544;46.760;15.942;2022-12-26T08:46:46;8.38;;;7.50;;
24411;SDS011;12544;46.760;15.942;2022-12-26T08:49:11;8.25;;;6.88;;
24411;SDS011;12544;46.760;15.942;2022-12-26T08:51:37;11.38;;;8.68;;
24411;SDS011;12544;46.760;15.942;2022-12-26T08:54:03;17.70;;;15.13;;
24411;SDS011;12544;46.760;15.942;2022-12-26T08:56:30;14.60;;;12.43;;
24411;SDS011;12544;46.760;15.942;2022-12-26T08:58:55;11.00;;;9.35;;
24411;SDS011;12544;46.760;15.942;2022-12-26T09:01:23;7.97;;;7.15;;
24411;SDS011;12544;46.760;15.942;2022-12-26T09:03:53;9.63;;;8.68;;
24411;SDS011;12544;46.760;15.942;2022-12-26T09:06:24;9.15;;;8.10;;
24411;SDS011;12544;46.760;15.942;2022-12-26T09:08:50;10.18;;;9.20;;
24411;SDS011;12544;46.760;15.942;2022-12-26T09:11:17;13.43;;;10.85;;
24411;SDS011;12544;46.760;15.942;2022-12-26T09:13:45;11.88;;;10.73;;
24411;SDS011;12544;46.760;15.942;2022-12-26T09:16:15;10.98;;;9.88;;
24411;SDS011;12544;46.760;15.942;2022-12-26T09:18:43;10.85;;;9.88;;
24411;SDS011;12544;46.760;15.942;2022-12-26T09:21:10;12.07;;;10.55;;
24411;SDS011;12544;46.760;15.942;2022-12-26T09:23:37;9.85;;;8.77;;
24411;SDS011;12544;46.760;15.942;2022-12-26T09:26:07;8.23;;;7.43;;
24411;SDS011;12544;46.760;15.942;2022-12-26T09:28:34;8.90;;;7.10;;
24411;SDS011;12544;46.760;15.942;2022-12-26T09:31:01;8.50;;;7.60;;
24411;SDS011;12544;46.760;15.942;2022-12-26T09:33:29;8.95;;;8.05;;
24411;SDS011;12544;46.760;15.942;2022-12-26T09:35:55;9.05;;;8.02;;
24411;SDS011;12544;46.760;15.942;2022-12-26T09:38:21;10.65;;;8.32;;
24411;SDS011;12544;46.760;15.942;2022-12-26T09:46:41;9.13;;;6.75;;
24411;SDS011;12544;46.760;15.942;2022-12-26T09:58:29;9.20;;;6.35;;
24411;SDS011;12544;46.760;15.942;2022-12-26T10:01:07;6.00;;;5.15;;
24411;SDS011;12544;46.760;15.942;2022-12-26T10:14:17;6.97;;;6.00;;
24411;SDS011;12544;46.760;15.942;2022-12-26T10:19:36;5.80;;;4.38;;
24411;SDS011;12544;46.760;15.942;2022-12-26T10:25:03;4.63;;;4.20;;
24411;SDS011;12544;46.760;15.942;2022-12-26T10:27:44;6.15;;;5.55;;
24411;SDS011;12544;46.760;15.942;2022-12-26T10:30:34;5.85;;;5.25;;
24411;SDS011;12544;46.760;15.942;2022-12-26T10:33:03;6.85;;;5.68;;
24411;SDS011;12544;46.760;15.942;2022-12-26T10:35:38;8.02;;;7.18;;
24411;SDS011;12544;46.760;15.942;2022-12-26T10:41:43;8.57;;;7.78;;
24411;SDS011;12544;46.760;15.942;2022-12-26T10:44:11;7.20;;;6.50;;
24411;SDS011;12544;46.760;15.942;2022-12-26T10:46:42;5.68;;;4.53;;
24411;SDS011;12544;46.760;15.942;2022-12-26T10:49:17;4.75;;;4.35;;
24411;SDS011;12544;46.760;15.942;2022-12-26T10:51:46;4.20;;;3.80;;
24411;SDS011;12544;46.760;15.942;2022-12-26T10:54:15;6.25;;;5.65;;
24411;SDS011;12544;46.760;15.942;2022-12-26T10:56:43;3.38;;;2.95;;
24411;SDS011;12544;46.760;15.942;2022-12-26T10:59:22;2.95;;;2.65;;
24411;SDS011;12544;46.760;15.942;2022-12-26T11:02:10;6.10;;;5.30;;
24411;SDS011;12544;46.760;15.942;2022-12-26T11:04:58;5.40;;;4.15;;
24411;SDS011;12544;46.760;15.942;2022-12-26T11:13:34;6.63;;;5.97;;
24411;SDS011;12544;46.760;15.942;2022-12-26T11:16:04;4.93;;;4.47;;
24411;SDS011;12544;46.760;15.942;2022-12-26T11:18:32;5.60;;;5.10;;
24411;SDS011;12544;46.760;15.942;2022-12-26T11:24:17;4.47;;;3.60;;
24411;SDS011;12544;46.760;15.942;2022-12-26T11:26:43;4.18;;;3.28;;
24411;SDS011;12544;46.760;15.942;2022-12-26T11:29:13;4.05;;;3.53;;
24411;SDS011;12544;46.760;15.942;2022-12-26T11:31:55;3.80;;;3.20;;
24411;SDS011;12544;46.760;15.942;2022-12-26T11:36:58;3.53;;;3.22;;
24411;SDS011;12544;46.760;15.942;2022-12-26T11:39:26;4.75;;;3.00;;
24411;SDS011;12544;46.760;15.942;2022-12-26T11:41:57;4.45;;;4.05;;
24411;SDS011;12544;46.760;15.942;2022-12-26T11:44:25;4.43;;;3.95;;
24411;SDS011;12544;46.760;15.942;2022-12-26T11:47:00;4.70;;;3.95;;
24411;SDS011;12544;46.760;15.942;2022-12-26T11:49:35;3.55;;;3.25;;
24411;SDS011;12544;46.760;15.942;2022-12-26T11:54:56;3.55;;;3.15;;
24411;SDS011;12544;46.760;15.942;2022-12-26T11:57:29;3.53;;;3.20;;
24411;SDS011;12544;46.760;15.942;2022-12-26T12:00:14;3.17;;;2.83;;
24411;SDS011;12544;46.760;15.942;2022-12-26T12:02:42;3.17;;;2.88;;
24411;SDS011;12544;46.760;15.942;2022-12-26T12:05:12;3.92;;;3.53;;
24411;SDS011;12544;46.760;15.942;2022-12-26T12:13:09;4.30;;;3.75;;
24411;SDS011;12544;46.760;15.942;2022-12-26T12:16:03;5.40;;;3.78;;
24411;SDS011;12544;46.760;15.942;2022-12-26T12:18:47;4.80;;;4.10;;
24411;SDS011;12544;46.760;15.942;2022-12-26T12:26:59;4.93;;;4.65;;
24411;SDS011;12544;46.760;15.942;2022-12-26T12:32:41;3.38;;;3.08;;
24411;SDS011;12544;46.760;15.942;2022-12-26T12:38:30;5.57;;;2.95;;
24411;SDS011;12544;46.760;15.942;2022-12-26T12:59:58;4.55;;;3.45;;
24411;SDS011;12544;46.760;15.942;2022-12-26T13:02:30;4.53;;;3.95;;
24411;SDS011;12544;46.760;15.942;2022-12-26T13:07:50;4.25;;;3.85;;
24411;SDS011;12544;46.760;15.942;2022-12-26T13:10:22;5.10;;;4.60;;
24411;SDS011;12544;46.760;15.942;2022-12-26T13:12:54;5.55;;;4.38;;
24411;SDS011;12544;46.760;15.942;2022-12-26T13:15:34;4.40;;;3.60;;
24411;SDS011;12544;46.760;15.942;2022-12-26T13:20:45;5.05;;;4.35;;
24411;SDS011;12544;46.760;15.942;2022-12-26T13:23:21;4.47;;;4.07;;
24411;SDS011;12544;46.760;15.942;2022-12-26T13:29:35;4.30;;;3.90;;
24411;SDS011;12544;46.760;15.942;2022-12-26T13:32:03;4.13;;;3.72;;
24411;SDS011;12544;46.760;15.942;2022-12-26T13:34:39;4.80;;;3.53;;
24411;SDS011;12544;46.760;15.942;2022-12-26T13:37:51;4.95;;;4.45;;
24411;SDS011;12544;46.760;15.942;2022-12-26T13:39:59;5.82;;;4.82;;
24411;SDS011;12544;46.760;15.942;2022-12-26T13:45:38;5.10;;;4.32;;
24411;SDS011;12544;46.760;15.942;2022-12-26T13:53:39;7.50;;;5.40;;
24411;SDS011;12544;46.760;15.942;2022-12-26T14:12:53;6.07;;;4.88;;
24411;SDS011;12544;46.760;15.942;2022-12-26T14:16:35;6.30;;;5.63;;
24411;SDS011;12544;46.760;15.942;2022-12-26T14:19:38;8.27;;;5.93;;
24411;SDS011;12544;46.760;15.942;2022-12-26T14:22:01;7.53;;;6.75;;
24411;SDS011;12544;46.760;15.942;2022-12-26T14:24:37;7.25;;;6.47;;
24411;SDS011;12544;46.760;15.942;2022-12-26T14:35:40;9.55;;;8.05;;
24411;SDS011;12544;46.760;15.942;2022-12-26T14:41:05;7.68;;;6.88;;
24411;SDS011;12544;46.760;15.942;2022-12-26T14:43:36;7.30;;;6.60;;
24411;SDS011;12544;46.760;15.942;2022-12-26T14:46:05;7.65;;;6.85;;
24411;SDS011;12544;46.760;15.942;2022-12-26T14:54:49;9.18;;;6.60;;
24411;SDS011;12544;46.760;15.942;2022-12-26T14:57:38;7.20;;;6.30;;
24411;SDS011;12544;46.760;15.942;2022-12-26T15:03:09;7.65;;;6.85;;
24411;SDS011;12544;46.760;15.942;2022-12-26T15:06:00;8.18;;;7.38;;
24411;SDS011;12544;46.760;15.942;2022-12-26T15:33:43;8.68;;;7.32;;
24411;SDS011;12544;46.760;15.942;2022-12-26T15:56:05;8.35;;;6.88;;
24411;SDS011;12544;46.760;15.942;2022-12-26T16:01:41;11.32;;;8.43;;
24411;SDS011;12544;46.760;15.942;2022-12-26T16:04:12;9.77;;;8.77;;
24411;SDS011;12544;46.760;15.942;2022-12-26T16:09:51;8.50;;;7.28;;
24411;SDS011;12544;46.760;15.942;2022-12-26T16:14:45;8.77;;;7.97;;
24411;SDS011;12544;46.760;15.942;2022-12-26T16:19:43;8.40;;;7.63;;
24411;SDS011;12544;46.760;15.942;2022-12-26T16:22:13;8.40;;;7.22;;
24411;SDS011;12544;46.760;15.942;2022-12-26T16:27:55;7.43;;;6.72;;
24411;SDS011;12544;46.760;15.942;2022-12-26T16:30:25;8.48;;;7.22;;
24411;SDS011;12544;46.760;15.942;2022-12-26T16:32:53;8.27;;;7.38;;
24411;SDS011;12544;46.760;15.942;2022-12-26T16:35:20;7.93;;;7.13;;
24411;SDS011;12544;46.760;15.942;2022-12-26T16:37:51;8.68;;;7.78;;
24411;SDS011;12544;46.760;15.942;2022-12-26T16:45:39;8.73;;;7.65;;
24411;SDS011;12544;46.760;15.942;2022-12-26T16:48:07;8.68;;;7.53;;
24411;SDS011;12544;46.760;15.942;2022-12-26T16:50:43;9.48;;;7.13;;
24411;SDS011;12544;46.760;15.942;2022-12-26T16:53:18;9.50;;;8.45;;
24411;SDS011;12544;46.760;15.942;2022-12-26T17:01:44;9.82;;;7.60;;
24411;SDS011;12544;46.760;15.942;2022-12-26T17:04:20;9.00;;;7.53;;
24411;SDS011;12544;46.760;15.942;2022-12-26T17:06:50;9.43;;;7.15;;
24411;SDS011;12544;46.760;15.942;2022-12-26T17:09:28;7.47;;;6.78;;
24411;SDS011;12544;46.760;15.942;2022-12-26T17:12:06;6.93;;;6.28;;
24411;SDS011;12544;46.760;15.942;2022-12-26T17:14:58;17.17;;;11.85;;
24411;SDS011;12544;46.760;15.942;2022-12-26T17:17:30;40.53;;;22.50;;
24411;SDS011;12544;46.760;15.942;2022-12-26T17:22:48;12.05;;;10.05;;
24411;SDS011;12544;46.760;15.942;2022-12-26T17:27:45;8.23;;;6.80;;
24411;SDS011;12544;46.760;15.942;2022-12-26T17:32:45;9.77;;;8.10;;
24411;SDS011;12544;46.760;15.942;2022-12-26T17:35:13;7.80;;;7.00;;
24411;SDS011;12544;46.760;15.942;2022-12-26T17:37:41;7.80;;;7.00;;
24411;SDS011;12544;46.760;15.942;2022-12-26T17:42:50;7.80;;;6.97;;
24411;SDS011;12544;46.760;15.942;2022-12-26T17:45:19;7.90;;;6.90;;
24411;SDS011;12544;46.760;15.942;2022-12-26T17:47:46;8.13;;;7.35;;
24411;SDS011;12544;46.760;15.942;2022-12-26T17:50:14;8.30;;;7.50;;
24411;SDS011;12544;46.760;15.942;2022-12-26T17:52:39;8.65;;;7.75;;
24411;SDS011;12544;46.760;15.942;2022-12-26T17:55:10;9.10;;;8.20;;
24411;SDS011;12544;46.760;15.942;2022-12-26T17:57:39;8.73;;;7.90;;
24411;SDS011;12544;46.760;15.942;2022-12-26T18:00:09;8.80;;;8.00;;
24411;SDS011;12544;46.760;15.942;2022-12-26T18:02:48;14.70;;;12.63;;
24411;SDS011;12544;46.760;15.942;2022-12-26T18:05:14;19.63;;;14.65;;
24411;SDS011;12544;46.760;15.942;2022-12-26T18:07:41;18.08;;;13.13;;
24411;SDS011;12544;46.760;15.942;2022-12-26T18:10:18;11.93;;;10.60;;
24411;SDS011;12544;46.760;15.942;2022-12-26T18:12:45;9.93;;;8.93;;
24411;SDS011;12544;46.760;15.942;2022-12-26T18:15:12;8.93;;;8.02;;
24411;SDS011;12544;46.760;15.942;2022-12-26T18:17:38;10.80;;;8.85;;
24411;SDS011;12544;46.760;15.942;2022-12-26T18:20:04;16.70;;;8.95;;
24411;SDS011;12544;46.760;15.942;2022-12-26T18:22:30;9.68;;;8.77;;
24411;SDS011;12544;46.760;15.942;2022-12-26T18:24:56;8.35;;;7.55;;
24411;SDS011;12544;46.760;15.942;2022-12-26T18:27:24;9.25;;;8.38;;
24411;SDS011;12544;46.760;15.942;2022-12-26T18:33:15;8.23;;;7.43;;
24411;SDS011;12544;46.760;15.942;2022-12-26T18:35:41;8.02;;;7.22;;
24411;SDS011;12544;46.760;15.942;2022-12-26T18:38:15;8.13;;;7.15;;
24411;SDS011;12544;46.760;15.942;2022-12-26T18:40:49;7.32;;;6.63;;
24411;SDS011;12544;46.760;15.942;2022-12-26T18:43:21;8.55;;;6.93;;
24411;SDS011;12544;46.760;15.942;2022-12-26T18:45:47;8.10;;;7.22;;
24411;SDS011;12544;46.760;15.942;2022-12-26T18:48:13;6.60;;;5.95;;
24411;SDS011;12544;46.760;15.942;2022-12-26T18:50:40;6.97;;;5.82;;
24411;SDS011;12544;46.760;15.942;2022-12-26T18:53:06;6.22;;;5.50;;
24411;SDS011;12544;46.760;15.942;2022-12-26T18:58:54;6.57;;;5.20;;
24411;SDS011;12544;46.760;15.942;2022-12-26T19:01:19;7.00;;;5.60;;
24411;SDS011;12544;46.760;15.942;2022-12-26T19:03:45;5.63;;;4.85;;
24411;SDS011;12544;46.760;15.942;2022-12-26T19:06:44;5.95;;;5.30;;
24411;SDS011;12544;46.760;15.942;2022-12-26T19:09:03;6.22;;;4.85;;
24411;SDS011;12544;46.760;15.942;2022-12-26T19:11:29;5.10;;;4.60;;
24411;SDS011;12544;46.760;15.942;2022-12-26T19:13:54;5.07;;;3.92;;
24411;SDS011;12544;46.760;15.942;2022-12-26T19:16:20;5.03;;;4.38;;
24411;SDS011;12544;46.760;15.942;2022-12-26T19:18:47;6.03;;;4.57;;
24411;SDS011;12544;46.760;15.942;2022-12-26T19:21:13;6.85;;;5.60;;
24411;SDS011;12544;46.760;15.942;2022-12-26T19:23:40;6.38;;;5.22;;
24411;SDS011;12544;46.760;15.942;2022-12-26T19:26:10;6.60;;;6.00;;
24411;SDS011;12544;46.760;15.942;2022-12-26T19:28:38;5.22;;;4.72;;
24411;SDS011;12544;46.760;15.942;2022-12-26T19:31:08;5.45;;;4.90;;
24411;SDS011;12544;46.760;15.942;2022-12-26T19:33:35;6.80;;;6.10;;
24411;SDS011;12544;46.760;15.942;2022-12-26T19:36:01;5.35;;;4.85;;
24411;SDS011;12544;46.760;15.942;2022-12-26T19:38:27;6.68;;;5.28;;
24411;SDS011;12544;46.760;15.942;2022-12-26T19:40:53;6.78;;;5.28;;
24411;SDS011;12544;46.760;15.942;2022-12-26T19:43:24;5.30;;;4.80;;
24411;SDS011;12544;46.760;15.942;2022-12-26T19:45:56;5.60;;;5.10;;
24411;SDS011;12544;46.760;15.942;2022-12-26T19:48:25;6.22;;;5.63;;
24411;SDS011;12544;46.760;15.942;2022-12-26T19:50:51;7.18;;;6.47;;
24411;SDS011;12544;46.760;15.942;2022-12-26T19:53:17;8.82;;;5.30;;
24411;SDS011;12544;46.760;15.942;2022-12-26T19:55:43;6.53;;;5.88;;
24411;SDS011;12544;46.760;15.942;2022-12-26T19:58:08;6.75;;;5.90;;